createdAt,value
2018-10-09T00:01:58.555Z,13.70
2018-10-09T00:04:25.604Z,15.40
2018-10-09T00:06:52.633Z,15.30
2018-10-09T00:09:20.025Z,16.00
2018-10-09T00:11:47.190Z,14.43
2018-10-09T00:14:14.222Z,15.67
2018-10-09T00:16:41.660Z,15.90
2018-10-09T00:19:08.686Z,15.53
2018-10-09T00:21:35.789Z,15.83
2018-10-09T00:24:03.405Z,15.53
2018-10-09T00:26:30.675Z,15.80
2018-10-09T00:28:57.817Z,16.60
2018-10-09T00:31:24.899Z,15.13
2018-10-09T00:33:51.960Z,16.47
2018-10-09T00:36:18.985Z,14.07
2018-10-09T00:38:46.076Z,15.60
2018-10-09T00:41:13.300Z,16.10
2018-10-09T00:43:40.356Z,14.70
2018-10-09T00:46:07.423Z,15.53
2018-10-09T00:48:34.484Z,14.57
2018-10-09T00:51:01.540Z,15.63
2018-10-09T00:53:28.575Z,16.17
2018-10-09T00:55:55.601Z,16.33
2018-10-09T00:58:22.627Z,15.10
2018-10-09T01:00:49.685Z,15.63
2018-10-09T01:03:16.748Z,15.00
2018-10-09T01:05:43.808Z,15.60
2018-10-09T01:08:10.874Z,16.03
2018-10-09T01:10:37.987Z,14.90
2018-10-09T01:13:05.031Z,16.40
2018-10-09T01:15:32.196Z,15.53
2018-10-09T01:17:59.244Z,15.33
2018-10-09T01:20:30.347Z,15.07
2018-10-09T01:22:57.486Z,15.57
2018-10-09T01:25:24.542Z,16.77
2018-10-09T01:27:51.575Z,16.73
2018-10-09T01:30:18.948Z,15.90
2018-10-09T01:32:46.059Z,16.03
2018-10-09T01:35:13.104Z,16.53
2018-10-09T01:37:40.184Z,15.87
2018-10-09T01:40:07.207Z,17.67
2018-10-09T01:42:34.256Z,16.17
2018-10-09T01:45:01.649Z,16.60
2018-10-09T01:47:28.712Z,18.00
2018-10-09T01:49:55.738Z,15.80
2018-10-09T01:52:22.815Z,18.40
2018-10-09T01:54:49.887Z,17.93
2018-10-09T01:57:16.943Z,16.03
2018-10-09T01:59:44.033Z,16.47
2018-10-09T02:02:11.099Z,17.50
2018-10-09T02:04:38.115Z,16.63
2018-10-09T02:07:05.529Z,16.67
2018-10-09T02:09:32.582Z,17.70
2018-10-09T02:11:59.623Z,16.30
2018-10-09T02:14:26.696Z,16.47
2018-10-09T02:16:53.773Z,17.47
2018-10-09T02:19:20.799Z,17.30
2018-10-09T02:21:48.257Z,17.73
2018-10-09T02:24:15.336Z,17.30
2018-10-09T02:26:42.400Z,18.47
2018-10-09T02:29:09.476Z,18.77
2018-10-09T02:31:36.536Z,17.40
2018-10-09T02:34:03.630Z,17.80
2018-10-09T02:36:30.986Z,18.70
2018-10-09T02:38:58.004Z,17.20
2018-10-09T02:41:25.071Z,17.60
2018-10-09T02:43:52.183Z,16.93
2018-10-09T02:46:19.196Z,17.57
2018-10-09T02:48:46.212Z,17.90
2018-10-09T02:51:13.580Z,16.07
2018-10-09T02:53:40.601Z,17.40
2018-10-09T02:56:07.660Z,16.93
2018-10-09T02:58:35.144Z,17.93
2018-10-09T03:01:02.176Z,17.57
2018-10-09T03:03:29.234Z,18.50
2018-10-09T03:05:56.303Z,19.17
2018-10-09T03:08:23.385Z,18.17
2018-10-09T03:10:50.481Z,19.23
2018-10-09T03:13:24.541Z,19.80
2018-10-09T03:15:51.599Z,19.13
2018-10-09T03:18:18.628Z,19.00
2018-10-09T03:20:45.709Z,19.80
2018-10-09T03:23:12.784Z,21.30
2018-10-09T03:25:39.890Z,19.57
2018-10-09T03:28:07.283Z,18.70
2018-10-09T03:30:34.341Z,19.90
2018-10-09T03:33:01.445Z,19.67
2018-10-09T03:35:28.517Z,19.53
2018-10-09T03:37:55.543Z,19.20
2018-10-09T03:40:22.594Z,19.30
2018-10-09T03:42:49.717Z,19.07
2018-10-09T03:45:16.780Z,19.17
2018-10-09T03:47:43.820Z,19.47
2018-10-09T03:50:10.967Z,18.70
2018-10-09T03:52:38.024Z,18.23
2018-10-09T03:55:05.208Z,19.00
2018-10-09T03:57:32.263Z,17.83
2018-10-09T03:59:59.283Z,19.40
2018-10-09T04:02:26.340Z,17.53
2018-10-09T04:04:53.717Z,17.53
2018-10-09T04:07:20.776Z,17.97
2018-10-09T04:09:47.840Z,17.87
2018-10-09T04:12:14.925Z,18.30
2018-10-09T04:14:42.006Z,18.10
2018-10-09T04:17:09.094Z,19.20
2018-10-09T04:19:36.317Z,19.60
2018-10-09T04:22:03.255Z,19.90
2018-10-09T04:24:30.297Z,19.17
2018-10-09T04:26:57.651Z,19.60
2018-10-09T04:29:24.706Z,20.73
2018-10-09T04:31:51.818Z,20.63
2018-10-09T04:34:18.900Z,20.17
2018-10-09T04:36:45.955Z,20.23
2018-10-09T04:39:12.987Z,20.97
2018-10-09T04:41:40.025Z,21.40
2018-10-09T04:44:07.054Z,21.10
2018-10-09T04:46:34.171Z,20.63
2018-10-09T04:49:01.597Z,22.80
2018-10-09T04:51:28.652Z,23.03
2018-10-09T04:53:55.690Z,23.07
2018-10-09T04:56:23.028Z,22.00
2018-10-09T04:58:50.105Z,22.20
2018-10-09T05:01:17.155Z,21.90
2018-10-09T05:03:44.476Z,21.90
2018-10-09T05:06:11.524Z,22.80
2018-10-09T05:08:38.550Z,22.07
2018-10-09T05:11:05.626Z,21.13
2018-10-09T05:13:32.723Z,22.97
2018-10-09T05:15:59.741Z,23.80
2018-10-09T05:18:27.200Z,24.30
2018-10-09T05:20:54.235Z,26.87
2018-10-09T05:23:21.346Z,24.60
2018-10-09T05:25:48.376Z,25.73
2018-10-09T05:28:15.535Z,28.03
2018-10-09T05:30:42.584Z,30.77
2018-10-09T05:33:09.971Z,27.90
2018-10-09T05:35:36.994Z,29.67
2018-10-09T05:38:04.018Z,31.70
2018-10-09T05:40:31.365Z,29.90
2018-10-09T05:42:58.423Z,30.13
2018-10-09T05:45:25.480Z,32.33
2018-10-09T05:47:52.568Z,30.93
2018-10-09T05:50:19.646Z,31.73
2018-10-09T05:52:46.712Z,31.03
2018-10-09T05:55:14.100Z,31.10
2018-10-09T05:57:41.121Z,32.30
2018-10-09T06:00:08.455Z,34.67
2018-10-09T06:02:35.820Z,34.77
2018-10-09T06:05:03.096Z,34.20
2018-10-09T06:07:30.151Z,36.07
2018-10-09T06:09:57.224Z,40.07
2018-10-09T06:12:24.376Z,39.27
2018-10-09T06:14:51.480Z,41.90
2018-10-09T06:17:18.592Z,38.30
2018-10-09T06:19:45.656Z,38.70
2018-10-09T06:22:12.749Z,38.57
2018-10-09T06:24:39.826Z,39.30
2018-10-09T06:27:06.968Z,39.37
2018-10-09T06:29:34.116Z,38.20
2018-10-09T06:32:01.482Z,38.37
2018-10-09T06:34:28.489Z,39.23
2018-10-09T06:36:55.450Z,36.63
2018-10-09T06:39:22.852Z,39.03
2018-10-09T06:41:49.896Z,37.53
2018-10-09T06:44:16.950Z,36.90
2018-10-09T06:46:44.304Z,34.30
2018-10-09T06:49:11.407Z,33.50
2018-10-09T06:51:38.461Z,32.67
2018-10-09T06:54:05.990Z,35.20
2018-10-09T06:56:32.907Z,34.60
2018-10-09T06:59:00.021Z,36.70
2018-10-09T07:01:27.268Z,35.40
2018-10-09T07:03:54.403Z,34.50
2018-10-09T07:06:21.590Z,32.67
2018-10-09T07:08:49.044Z,34.10
2018-10-09T07:11:16.171Z,32.43
2018-10-09T07:13:43.136Z,35.40
2018-10-09T07:16:10.284Z,34.90
2018-10-09T07:18:37.360Z,33.60
2018-10-09T07:21:04.481Z,36.50
2018-10-09T07:23:31.621Z,36.77
2018-10-09T07:25:58.656Z,34.97
2018-10-09T07:28:25.841Z,35.43
2018-10-09T07:30:53.284Z,34.63
2018-10-09T07:33:20.319Z,33.80
2018-10-09T07:35:47.349Z,34.60
2018-10-09T07:38:14.508Z,35.63
2018-10-09T07:40:41.544Z,34.27
2018-10-09T07:43:08.665Z,34.20
2018-10-09T07:45:35.731Z,33.83
2018-10-09T07:48:02.791Z,36.63
2018-10-09T07:50:30.036Z,35.77
2018-10-09T07:52:57.124Z,35.33
2018-10-09T07:55:24.239Z,36.87
2018-10-09T07:57:51.298Z,34.10
2018-10-09T08:00:18.646Z,33.33
2018-10-09T08:02:45.721Z,33.80
2018-10-09T08:05:12.763Z,33.73
2018-10-09T08:07:39.858Z,34.30
2018-10-09T08:10:06.900Z,35.23
2018-10-09T08:12:34.542Z,33.60
2018-10-09T08:15:01.913Z,37.50
2018-10-09T08:17:29.410Z,36.07
2018-10-09T08:19:56.714Z,34.57
2018-10-09T08:22:25.636Z,36.63
2018-10-09T08:24:53.030Z,35.53
2018-10-09T08:27:21.097Z,34.90
2018-10-09T08:29:49.103Z,33.93
2018-10-09T08:32:17.039Z,35.27
2018-10-09T08:34:45.841Z,34.50
2018-10-09T08:37:13.928Z,33.63
2018-10-09T08:39:42.874Z,31.60
2018-10-09T08:42:10.685Z,32.70
2018-10-09T08:44:38.819Z,33.80
2018-10-09T08:47:07.305Z,33.33
2018-10-09T08:49:35.654Z,33.97
2018-10-09T08:52:04.664Z,32.97
2018-10-09T08:54:32.629Z,31.00
2018-10-09T08:57:01.212Z,32.60
2018-10-09T08:59:28.712Z,27.50
2018-10-09T09:01:56.423Z,30.20
2018-10-09T09:04:24.032Z,31.77
2018-10-09T09:06:52.837Z,33.80
2018-10-09T09:09:20.113Z,30.67
2018-10-09T09:11:48.779Z,32.20
2018-10-09T09:14:16.684Z,29.90
2018-10-09T09:16:45.799Z,28.30
2018-10-09T09:19:13.504Z,29.20
2018-10-09T09:21:41.328Z,29.83
2018-10-09T09:24:09.403Z,29.20
2018-10-09T09:26:36.622Z,30.53
2018-10-09T09:29:03.715Z,29.00
2018-10-09T09:31:30.812Z,29.57
2018-10-09T09:33:57.969Z,28.77
2018-10-09T09:36:25.397Z,30.43
2018-10-09T09:38:52.503Z,28.10
2018-10-09T09:41:19.539Z,28.07
2018-10-09T09:43:46.604Z,27.70
2018-10-09T09:46:13.713Z,29.40
2018-10-09T09:48:40.744Z,30.20
2018-10-09T09:51:08.044Z,27.80
2018-10-09T09:53:35.096Z,28.30
2018-10-09T09:56:02.160Z,30.73
2018-10-09T09:58:29.405Z,28.47
2018-10-09T10:00:57.354Z,27.00
2018-10-09T10:03:24.984Z,26.03
2018-10-09T10:05:52.096Z,27.50
2018-10-09T10:08:19.139Z,25.37
2018-10-09T10:10:46.321Z,24.43
2018-10-09T10:13:13.408Z,25.20
2018-10-09T10:15:40.458Z,26.60
2018-10-09T10:18:07.480Z,23.83
2018-10-09T10:20:34.800Z,29.10
2018-10-09T10:23:01.889Z,27.20
2018-10-09T10:25:28.949Z,24.50
2018-10-09T10:27:56.264Z,27.50
2018-10-09T10:30:23.414Z,21.33
2018-10-09T10:32:50.494Z,22.37
2018-10-09T10:35:17.790Z,20.20
2018-10-09T10:37:44.873Z,21.70
2018-10-09T10:40:11.992Z,26.00
2018-10-09T10:42:39.333Z,21.43
2018-10-09T10:45:06.420Z,26.40
2018-10-09T10:47:33.535Z,16.30
2018-10-09T10:50:00.649Z,16.73
2018-10-09T10:52:27.770Z,16.73
2018-10-09T10:54:54.895Z,17.00
2018-10-09T10:57:21.974Z,16.10
2018-10-09T10:59:49.080Z,15.10
2018-10-09T11:02:17.622Z,15.50
2018-10-09T11:04:44.886Z,17.03
2018-10-09T11:07:12.011Z,13.47
2018-10-09T11:09:39.161Z,13.40
2018-10-09T11:12:06.250Z,14.07
2018-10-09T11:14:33.316Z,14.30
2018-10-09T11:17:00.358Z,14.53
2018-10-09T11:19:27.777Z,18.13
2018-10-09T11:21:54.847Z,13.90
2018-10-09T11:24:21.885Z,14.00
2018-10-09T11:26:49.028Z,14.50
2018-10-09T11:29:16.157Z,15.97
2018-10-09T11:31:43.259Z,16.50
2018-10-09T11:34:10.546Z,19.90
2018-10-09T11:36:37.649Z,13.77
2018-10-09T11:39:05.815Z,14.20
2018-10-09T11:41:32.944Z,16.70
2018-10-09T11:44:00.022Z,15.30
2018-10-09T11:46:27.113Z,14.30
2018-10-09T11:48:54.210Z,12.80
2018-10-09T11:51:21.314Z,14.07
2018-10-09T11:53:48.389Z,11.53
2018-10-09T11:56:15.837Z,13.97
2018-10-09T11:58:43.042Z,18.30
2018-10-09T12:01:10.181Z,14.97
2018-10-09T12:03:37.591Z,13.87
2018-10-09T12:06:04.710Z,15.77
2018-10-09T12:08:31.827Z,13.37
2018-10-09T12:10:58.965Z,13.50
2018-10-09T12:13:26.110Z,14.57
2018-10-09T12:15:53.233Z,14.07
2018-10-09T12:18:20.592Z,24.70
2018-10-09T12:20:47.632Z,11.57
2018-10-09T12:23:14.673Z,11.63
2018-10-09T12:25:41.758Z,13.53
2018-10-09T12:28:08.796Z,11.90
2018-10-09T12:30:35.862Z,13.73
2018-10-09T12:33:03.342Z,12.40
2018-10-09T12:35:30.347Z,14.50
2018-10-09T12:37:57.475Z,14.00
2018-10-09T12:40:24.561Z,19.47
2018-10-09T12:42:51.655Z,13.00
2018-10-09T12:45:19.084Z,13.17
2018-10-09T12:47:46.543Z,12.53
2018-10-09T12:50:13.644Z,15.40
2018-10-09T12:52:40.775Z,23.60
2018-10-09T12:55:07.936Z,11.30
2018-10-09T12:57:35.037Z,12.07
2018-10-09T13:00:02.128Z,12.43
2018-10-09T13:02:29.634Z,12.47
2018-10-09T13:04:56.745Z,13.17
2018-10-09T13:07:23.815Z,10.60
2018-10-09T13:09:50.999Z,13.30
2018-10-09T13:12:18.068Z,12.80
2018-10-09T13:14:45.169Z,11.70
2018-10-09T13:17:12.645Z,12.30
2018-10-09T13:19:39.687Z,14.20
2018-10-09T13:22:07.127Z,13.70
2018-10-09T13:24:33.984Z,15.80
2018-10-09T13:27:01.055Z,11.20
2018-10-09T13:29:28.142Z,12.10
2018-10-09T13:31:55.310Z,12.40
2018-10-09T13:34:22.448Z,11.90
2018-10-09T13:36:50.108Z,13.83
2018-10-09T13:39:17.497Z,13.83
2018-10-09T13:41:44.593Z,13.20
2018-10-09T13:44:11.774Z,14.67
2018-10-09T13:46:39.423Z,14.10
2018-10-09T13:49:07.012Z,19.27
2018-10-09T13:51:34.106Z,14.50
2018-10-09T13:54:01.221Z,14.87
2018-10-09T13:56:28.356Z,16.00
2018-10-09T13:58:55.440Z,15.77
2018-10-09T14:01:22.878Z,14.73
2018-10-09T14:03:49.994Z,14.40
2018-10-09T14:06:17.167Z,13.30
2018-10-09T14:08:44.464Z,13.53
2018-10-09T14:11:11.557Z,13.10
2018-10-09T14:13:38.671Z,15.60
2018-10-09T14:16:05.879Z,15.77
2018-10-09T14:18:32.931Z,17.17
2018-10-09T14:21:00.007Z,15.30
2018-10-09T14:23:27.185Z,11.67
2018-10-09T14:25:54.341Z,14.50
2018-10-09T14:28:21.389Z,14.93
2018-10-09T14:30:48.438Z,12.53
2018-10-09T14:33:15.573Z,15.20
2018-10-09T14:35:42.653Z,14.80
2018-10-09T14:38:09.785Z,15.50
2018-10-09T14:40:36.872Z,16.30
2018-10-09T14:43:03.993Z,14.60
2018-10-09T14:45:31.377Z,15.40
2018-10-09T14:47:58.443Z,14.93
2018-10-09T14:50:25.534Z,14.60
2018-10-09T14:52:52.632Z,15.60
2018-10-09T14:55:19.697Z,15.10
2018-10-09T14:57:46.932Z,15.10
2018-10-09T15:00:14.383Z,17.33
2018-10-09T15:02:41.586Z,12.83
2018-10-09T15:05:09.220Z,18.67
2018-10-09T15:07:36.573Z,16.67
2018-10-09T15:10:03.636Z,15.13
2018-10-09T15:12:30.705Z,13.90
2018-10-09T15:14:58.220Z,13.63
2018-10-09T15:17:25.361Z,16.90
2018-10-09T15:19:52.693Z,14.27
2018-10-09T15:22:19.740Z,17.23
2018-10-09T15:24:46.865Z,17.07
2018-10-09T15:27:13.934Z,16.90
2018-10-09T15:29:41.414Z,17.10
2018-10-09T15:32:08.450Z,15.30
2018-10-09T15:34:35.492Z,17.50
2018-10-09T15:37:02.931Z,21.20
2018-10-09T15:39:30.016Z,21.40
2018-10-09T15:41:57.169Z,21.87
2018-10-09T15:44:24.242Z,18.63
2018-10-09T15:46:51.301Z,17.50
2018-10-09T15:49:18.580Z,17.77
2018-10-09T15:51:45.953Z,19.70
2018-10-09T15:54:13.083Z,18.33
2018-10-09T15:56:40.323Z,19.60
2018-10-09T15:59:07.692Z,23.60
2018-10-09T16:01:34.769Z,18.60
2018-10-09T16:04:01.946Z,21.77
2018-10-09T16:06:29.049Z,29.90
2018-10-09T16:08:56.109Z,23.47
2018-10-09T16:11:23.225Z,36.17
2018-10-09T16:13:50.729Z,27.57
2018-10-09T16:16:17.773Z,24.53
2018-10-09T16:18:44.801Z,23.40
2018-10-09T16:21:11.844Z,21.27
2018-10-09T16:23:38.952Z,20.77
2018-10-09T16:26:06.033Z,22.20
2018-10-09T16:28:33.532Z,22.50
2018-10-09T16:31:00.585Z,19.33
2018-10-09T16:33:27.665Z,24.87
2018-10-09T16:35:54.745Z,21.00
2018-10-09T16:38:22.017Z,21.37
2018-10-09T16:40:49.114Z,22.90
2018-10-09T16:43:16.461Z,19.57
2018-10-09T16:45:43.545Z,21.00
2018-10-09T16:48:10.617Z,21.30
2018-10-09T16:50:37.676Z,20.03
2018-10-09T16:53:04.742Z,21.20
2018-10-09T16:55:31.903Z,25.43
2018-10-09T16:57:59.046Z,22.23
2018-10-09T17:00:26.204Z,24.60
2018-10-09T17:02:53.259Z,24.07
2018-10-09T17:05:20.686Z,28.93
2018-10-09T17:07:47.724Z,25.67
2018-10-09T17:10:14.774Z,30.47
2018-10-09T17:12:41.857Z,29.30
2018-10-09T17:15:08.983Z,28.40
2018-10-09T17:17:36.241Z,28.10
2018-10-09T17:20:03.677Z,30.97
2018-10-09T17:22:30.823Z,27.27
2018-10-09T17:24:57.880Z,32.10
2018-10-09T17:27:25.215Z,30.27
2018-10-09T17:29:52.285Z,31.57
2018-10-09T17:32:19.409Z,29.80
2018-10-09T17:34:46.483Z,24.40
2018-10-09T17:37:13.523Z,28.50
2018-10-09T17:39:40.650Z,26.63
2018-10-09T17:42:07.962Z,25.00
2018-10-09T17:44:35.115Z,27.67
2018-10-09T17:47:06.210Z,26.73
2018-10-09T17:49:33.597Z,25.20
2018-10-09T17:52:00.689Z,26.73
2018-10-09T17:54:27.804Z,26.57
2018-10-09T17:56:54.881Z,25.40
2018-10-09T17:59:21.949Z,27.90
2018-10-09T18:01:49.011Z,25.10
2018-10-09T18:04:16.148Z,26.80
2018-10-09T18:06:43.221Z,25.50
2018-10-09T18:09:11.280Z,25.47
2018-10-09T18:11:39.053Z,26.07
2018-10-09T18:14:06.168Z,26.67
2018-10-09T18:16:33.219Z,27.30
2018-10-09T18:19:00.317Z,25.70
2018-10-09T18:21:27.502Z,28.43
2018-10-09T18:23:54.590Z,27.37
2018-10-09T18:26:21.684Z,27.93
2018-10-09T18:28:48.748Z,28.80
2018-10-09T18:31:15.833Z,28.10
2018-10-09T18:33:42.965Z,30.10
2018-10-09T18:36:10.060Z,28.33
2018-10-09T18:38:37.167Z,29.27
2018-10-09T18:41:04.614Z,28.93
2018-10-09T18:43:31.641Z,30.73
2018-10-09T18:45:58.700Z,30.57
2018-10-09T18:48:25.804Z,31.63
2018-10-09T18:50:52.981Z,31.90
2018-10-09T18:53:20.069Z,31.53
2018-10-09T18:55:47.196Z,30.93
2018-10-09T18:58:14.432Z,30.80
2018-10-09T19:00:41.496Z,32.40
2018-10-09T19:03:08.887Z,32.83
2018-10-09T19:05:35.927Z,32.27
2018-10-09T19:08:02.991Z,33.30
2018-10-09T19:10:30.149Z,34.33
2018-10-09T19:12:57.225Z,34.27
2018-10-09T19:15:24.341Z,33.27
2018-10-09T19:17:51.773Z,31.93
2018-10-09T19:20:18.795Z,33.13
2018-10-09T19:22:45.849Z,35.03
2018-10-09T19:25:12.933Z,34.83
2018-10-09T19:27:39.996Z,35.13
2018-10-09T19:30:07.173Z,33.80
2018-10-09T19:32:34.359Z,34.93
2018-10-09T19:35:01.424Z,35.30
2018-10-09T19:37:28.482Z,32.33
2018-10-09T19:39:55.818Z,31.73
2018-10-09T19:42:23.117Z,30.80
2018-10-09T19:44:50.176Z,31.50
2018-10-09T19:47:17.572Z,33.33
2018-10-09T19:49:44.721Z,31.33
2018-10-09T19:52:12.025Z,31.23
2018-10-09T19:54:39.184Z,34.07
2018-10-09T19:57:06.256Z,33.60
2018-10-09T19:59:33.295Z,32.20
2018-10-09T20:02:00.684Z,34.80
2018-10-09T20:04:27.742Z,34.60
2018-10-09T20:06:54.802Z,36.40
2018-10-09T20:09:22.162Z,35.80
2018-10-09T20:11:49.245Z,39.80
2018-10-09T20:14:16.390Z,37.53
2018-10-09T20:16:43.916Z,39.77
2018-10-09T20:19:11.451Z,37.97
2018-10-09T20:21:38.544Z,39.93
2018-10-09T20:24:06.265Z,41.13
2018-10-09T20:26:33.676Z,42.27
2018-10-09T20:29:00.822Z,40.40
2018-10-09T20:31:27.940Z,40.50
2018-10-09T20:33:55.045Z,42.40
2018-10-09T20:36:22.076Z,42.63
2018-10-09T20:38:49.429Z,44.03
2018-10-09T20:41:16.504Z,42.30
2018-10-09T20:43:43.737Z,45.10
2018-10-09T20:46:11.588Z,40.87
2018-10-09T20:48:38.690Z,42.67
2018-10-09T20:51:06.072Z,37.83
2018-10-09T20:53:33.263Z,40.07
2018-10-09T20:56:00.436Z,40.93
2018-10-09T20:58:27.479Z,39.57
2018-10-09T21:00:54.886Z,40.23
2018-10-09T21:03:22.047Z,40.47
2018-10-09T21:05:49.377Z,41.47
2018-10-09T21:08:16.740Z,41.47
2018-10-09T21:10:44.147Z,44.83
2018-10-09T21:13:11.233Z,43.57
2018-10-09T21:15:38.638Z,43.87
2018-10-09T21:18:06.727Z,45.37
2018-10-09T21:20:33.788Z,41.10
2018-10-09T21:23:01.176Z,42.30
2018-10-09T21:25:30.271Z,42.80
2018-10-09T21:27:57.509Z,41.37
2018-10-09T21:30:24.667Z,41.67
2018-10-09T21:32:51.736Z,41.00
2018-10-09T21:35:18.819Z,40.60
2018-10-09T21:37:46.190Z,41.43
2018-10-09T21:40:13.439Z,41.00
2018-10-09T21:42:40.978Z,40.27
2018-10-09T21:45:08.617Z,42.90
2018-10-09T21:47:35.784Z,41.70
2018-10-09T21:50:02.956Z,41.57
2018-10-09T21:52:30.095Z,40.20
2018-10-09T21:54:57.175Z,40.33
2018-10-09T21:57:24.436Z,40.70
2018-10-09T21:59:51.515Z,42.17
2018-10-09T22:02:18.598Z,40.00
2018-10-09T22:04:45.786Z,40.23
2018-10-09T22:07:16.045Z,40.90
2018-10-09T22:09:44.114Z,41.73
2018-10-09T22:12:11.458Z,44.13
2018-10-09T22:14:38.941Z,42.30
2018-10-09T22:17:06.172Z,42.03
2018-10-09T22:19:33.526Z,41.23
2018-10-09T22:22:00.862Z,39.97
2018-10-09T22:24:28.352Z,40.87
2018-10-09T22:26:55.482Z,41.90
2018-10-09T22:29:22.712Z,43.63
2018-10-09T22:31:49.902Z,43.00
2018-10-09T22:34:17.086Z,41.90
2018-10-09T22:36:44.715Z,41.40
2018-10-09T22:39:12.056Z,40.47
2018-10-09T22:41:39.508Z,39.63
2018-10-09T22:44:07.455Z,37.33
2018-10-09T22:46:34.582Z,39.17
2018-10-09T22:49:01.914Z,37.80
2018-10-09T22:51:29.411Z,39.53
2018-10-09T22:53:56.344Z,39.47
2018-10-09T22:56:23.512Z,39.90
2018-10-09T22:58:50.601Z,38.70
2018-10-09T23:01:17.662Z,40.00
2018-10-09T23:03:44.870Z,40.77
2018-10-09T23:06:12.402Z,40.60
2018-10-09T23:08:39.579Z,38.77
2018-10-09T23:11:07.103Z,39.70
2018-10-09T23:13:34.316Z,40.80
2018-10-09T23:16:01.344Z,39.70
2018-10-09T23:18:28.598Z,41.17
2018-10-09T23:20:56.075Z,39.93
2018-10-09T23:23:23.216Z,40.60
2018-10-09T23:25:50.402Z,42.67
2018-10-09T23:28:17.540Z,42.30
2018-10-09T23:30:44.769Z,40.70
2018-10-09T23:33:12.043Z,41.67
2018-10-09T23:35:39.572Z,40.23
2018-10-09T23:38:06.660Z,37.47
2018-10-09T23:40:33.765Z,39.90
2018-10-09T23:43:01.233Z,40.70
2018-10-09T23:45:28.360Z,38.63
2018-10-09T23:48:10.795Z,39.53
2018-10-09T23:50:39.993Z,40.27
2018-10-09T23:53:07.047Z,39.57
2018-10-09T23:55:34.708Z,39.37
2018-10-09T23:58:01.777Z,40.77
